AirNav   Air Wisconsin pilot careers
 
 1740 users online  

17K Boise City Airport
Boise City, Oklahoma, USA

GOING TO BOISE CITY?


FAA INFORMATION EFFECTIVE 21 JUNE 2018

Location

FAA Identifier: 17K
Lat/Long: 36-46-27.5000N / 102-30-37.6000W
36-46.458333N / 102-30.626667W
36.7743056 / -102.5104444
(estimated)
Elevation: 4174.3 ft. / 1272.3 m (surveyed)
Variation: 09E (1995)
From city: 3 miles N of BOISE CITY, OK
Time zone: UTC -5 (UTC -6 during Standard Time)
Zip code: 73933

Airport Operations

Airport use: Open to the public
Activation date: 08/1946
Control tower: no
ARTCC: ALBUQUERQUE CENTER
FSS: MC ALESTER FLIGHT SERVICE STATION
NOTAMs facility: MLC (NOTAM-D service available)
Attendance: UNATNDD
Wind indicator: lighted
Segmented circle: yes
Lights: MIRL RY 04/22 PRESET LOW INTST DUSK-DAWN, TO INCR INTST ACTVT - CTAF.
Beacon: white-green (lighted land airport)
Operates sunset to sunrise.

Airport Communications

CTAF: 122.9
  • APCH/DEP SERVICE PROVIDED BY ALBUQUERQUE ARTCC ON FREQS 127.85/285.475 (MOUNT DORA RCAG).

Nearby radio navigation aids

NDB name  Hdg/Dist  Freq  Var  ID
ELKHART239/33.037707EEHA . .... .-

Airport Services

Parking: tiedowns
Airframe service: NONE
Powerplant service: NONE
Bottled oxygen: NONE
Bulk oxygen: NONE

Runway Information

Runway 4/22

Dimensions: 4211 x 60 ft. / 1284 x 18 m
Surface: asphalt, in good condition
Weight bearing capacity: 
Single wheel: 4.0
Runway edge lights: medium intensity
RUNWAY 4  RUNWAY 22
Latitude: 36-46.232803N36-46.683457N
Longitude: 102-30.953885W102-30.298213W
Elevation: 4171.7 ft.4164.3 ft.
Gradient: 0.5%0.5%
Traffic pattern: leftleft
Runway heading: 040 magnetic, 049 true220 magnetic, 229 true
Markings: nonprecision, in good conditionnonprecision, in good condition
Touchdown point: yes, no lightsyes, no lights
Obstructions: 20 ft. trees, 220 ft. from runway, 190 ft. right of centerline, 1:1 slope to clear
+20 FT TREES 190 FT FM RY END & 240 FT R OF CENTERLINE.
15 ft. road, 450 ft. from runway, 16:1 slope to clear

Airport Ownership and Management from official FAA records

Ownership: Publicly-owned
Owner: CITY OF BOISE CITY
P.O. BOX 129, 23 N. LOGAN
BOISE CITY, OK 73933
Phone 580-544-2271
Manager: WAYNE TWYMAN
CITY HALL, P.O. BOX 129
BOISE CITY, OK 73933
Phone 580-544-2271
CITY MANAGER.

Airport Operational Statistics

Aircraft based on the field: 15
Single engine airplanes: 13
Multi engine airplanes: 2
    
Aircraft operations: avg 67/week *
71% local general aviation
29% transient general aviation
* for 12-month period ending 25 May 2016

Instrument Procedures

NOTE: All procedures below are presented as PDF files. If you need a reader for these files, you should download the free Adobe Reader.

NOT FOR NAVIGATION. Please procure official charts for flight.
FAA instrument procedures published for use from 21 June 2018 at 0901Z to 19 July 2018 at 0900Z.

 
IAPs - Instrument Approach Procedures
RNAV (GPS) RWY 04   download (156KB)
NOTE: Special Take-Off Minimums/Departure Procedures apply   download (131KB)

Other nearby airports with instrument procedures:

KEHA - Elkhart-Morton County Airport (33 nm NE)
H70 - Stratford Field Airport (34 nm SE)
KCAO - Clayton Municipal Airpark (37 nm SW)
8V7 - Springfield Municipal Airport (41 nm N)
KDHT - Dalhart Municipal Airport (45 nm S)
 
Loc | Ops | Rwys | IFR | FBO | Links
Com | Nav | Svcs | Stats | Notes


 
Area around 17K (Boise City Airport)
 
Road maps at: MapQuest Bing Google
 
Aerial photo
WARNING: Photo may not be current or correct
Aerial photo of 17K (Boise City Airport)
Photo by Ron Lee

Do you have a better or more recent aerial photo of Boise City Airport that you would like to share? If so, please send us your photo.

 
Sectional chart

 
Airport distance calculator
Flying to Boise City Airport? Find the distance to fly.

From to 17K

Sunrise and sunset
Times for 18-Jul-2018
 Local
(UTC-5)
 Zulu
(UTC)
Morning civil twilight06:1611:16
Sunrise06:4611:46
Sunset21:0702:07
Evening civil twilight21:3602:36

Current date and time
Zulu (UTC)  18-Jul-2018 18:57:35
Local (UTC-5)  18-Jul-2018 13:57:35
 
METAR
KSPD 
31nm N 
181756Z AUTO 05006KT 31/16 A3010 RMK AO1 SLP123 T03060161 10306 20161 56005
KEHA 
32nm NE 
181835Z AUTO 18006KT 10SM CLR 33/20 A3006 RMK AO2 T03270198
KCAO 
36nm SW 
181755Z AUTO VRB05KT 10SM CLR 32/13 A3014 RMK AO2 SLP120 T03220133 10322 20172 56010
8V7 
41nm N 
SuperAWOS
181755Z AUTO 00000KT 10SM 29/25 A3013
KDHT 
45nm S 
181853Z AUTO 08007KT 10SM CLR 34/14 A3007 RMK AO2 SLP111 T03440139
KGUY 
49nm E 
181853Z AUTO 06007KT 10SM CLR 33/19 A3002 RMK AO2 SLP112 T03280189
TAF
KDHT 
45nm S 
181737Z 1818/1918 VRB06KT P6SM SKC FM182000 12009KT P6SM SCT080 FM190200 07009KT P6SM SCT120 FM190800 VRB06KT P6SM SKC
KGUY 
49nm E 
181737Z 1818/1918 10006KT P6SM SCT070 FM190600 VRB06KT P6SM SCT120 FM191400 24008KT P6SM SKC
NOTAMs
Click for the latest NOTAMs
NOTAMs are issued by the DoD/FAA and will open in a separate window not controlled by AirNav.

 

 
 

Would you like to see your business listed on this page?

 If your business provides an interesting product or service to pilots, flight crews, aircraft, or users of the Boise City Airport, you should consider listing it here.  To start the listing process, click on the button below
 
Add a business
 

Other Pages about Boise City Airport

Update a link
 
Copyright © AirNav, LLC. All rights reserved. Privacy Policy  Contact